Tropical Cyclones
[Index]
Season 2021-2022 Tropical Cyclone ANIKA Track Map
Season 2021-2022 Summaries: [BoM-AU]
<<- Previous TC | BoM 2021-2022 Season | Next TC ->>

click for intensity scale information  Lat/long Grid: Show Hide

 Date Labels: Show Hide

Bureau of Meteorology Tropical Cyclone Data

Name: ANIKA

24 Feb 2022 00:00 UTC to 04 Mar 2022 00:00 UTC

    date/time    lat    long    hPa   cat  kts
2022-02-24 00   12.7   128.7   1004         25          
2022-02-24 06   12.8   128.4   1002         25          
2022-02-24 12   12.6   127.9   1001         25          
2022-02-24 18   12.4   127.7    998         30          
2022-02-25 00   12.4   127.8    998         30          
2022-02-25 06   12.5   127.8    997         30          
2022-02-25 12   12.7   127.6    995    1    35          
2022-02-25 15   12.8   127.6    995    1    35          
2022-02-25 18   12.9   127.6    990    1    45          
2022-02-26 00   12.9   127.5    988    1    45          
2022-02-26 06   13.4   127.5    986    1    50          
2022-02-26 12   13.9   127.1    986    1    50          
2022-02-26 18   14.3   126.7    988    1    40          
2022-02-27 00   14.3   126.6    993    1    40          
2022-02-27 06   14.5   126.4    992    1    35          
2022-02-27 12   14.9   126.0    994    1    35          
2022-02-27 18   15.5   125.5    996         35          
2022-02-28 00   15.6   125.1    997         35          
2022-02-28 06   16.0   124.9    996         30          
2022-02-28 12   16.5   124.2    998         25          
2022-02-28 18   16.7   123.6    998         25          
2022-03-01 00   16.7   122.6    997         25          
2022-03-01 06   17.0   122.2    996         30          
2022-03-01 12   17.4   122.0    995    1    30          
2022-03-01 18   18.2   122.0    992    1    30          
2022-03-02 00   18.9   121.0    993    1    35          
2022-03-02 06   19.5   120.6    986    1    40          
2022-03-02 12   19.8   120.5    978    2    50          
2022-03-02 18   20.2   121.0    982    2    40          
2022-03-03 00   21.0   121.6    982    2    40          
2022-03-03 06   22.1   122.1    986    1    40          
2022-03-03 12   22.7   122.9    988    1    35          
2022-03-03 18   22.7   123.4    999         30          
2022-03-04 00   22.7   123.9   1001         25          
Winds are 10-min average.

Tropical cyclone tracks developed by Michael Bath using data from the Bureau of Meteorology and Google Maps.


Document: tropical_cyclone_anika.htm
Updated: 23 June 2022
[Australian Severe Weather index] [Copyright Notice] [Email Contacts] [Search This Site] [Privacy Policy]


Main Index Home Page Stock Weather Photos Extreme Storms Discussion Storm News and Storm Chasing Reports Tropical Cyclones / Hurricanes / Typhoons Weather Data and Links Wild Fires / Bushfires Weather Observation Techniques Weather Picture Catalogue Tornado Pictures and Reports Stock Video Footage and DVDs for sale